Allen Army Airfield Delta Junction Ft Greely US
ICAO: PABI
IATA:
Category: Medium
Scheduled Services:

Elevation: 1291 ft
TransAlt. 18000 ft.

Airport Communications:
ASOS:135.65
ATIS:132.075
TWEB:114.9
ANCHORAGE CNTR:135.3
CTAF:122.9
FAIRBANKS RDO:122.2
FORT GREELY GND:118.225
FT GREELY RANGE CON:38.3
BASE OPS:122.9
TWR:125.325

PABI Zoom In..

If you have problems with the map follow the link
https://www.worldairports.se/pages/airport.php?
ICAO=PABI

Runways:

(A) RW 01 length 9000 ft width 150 ft
---- / hdg 7

(B) RW 07 length 4077 ft width 90 ft
---- / hdg 69

(C) RW 10 length 6115 ft width 150 ft
ILS 111.10 / hdg 102

(D) RW 19 length 9000 ft width 150 ft
---- / hdg 187

(E) RW 25 length 4077 ft width 90 ft
---- / hdg 249

(F) RW 28 length 6115 ft width 150 ft
---- / hdg 282

Location; PABI
Day. 18 / Time. 01.53 Zulu
* Altimeter: 29.71
* Temperature: -09° c. -15.8°f.
* Wind from: 100° Speed 22 kn with Gusts up to 29 kn.
Dewpoint: -16° c.
Visibility: 10 Statute Miles.
Clouds: Few 4000 ft.
Clouds: Scattered 11000 ft.
Clouds: Broken 14000 ft.
Clouds: Overcast 2000 ft.

PABI 180153Z 10022G29KT 10SM FEW040 SCT110 BKN140 OVC200 M09/M16 A2971 RMK AO2 PK WND 11035/0104 SLP101 CIG THN OHD T10891156


Wind From 100°
Speed 22 kn.

 
 
jpsmedia.com for Web Design worldairports.se 2019   terms of use